Time;durP1;ratioP1;P1;durP2;ratioP2;P2;SDS_P1;SDS_P2;PMS_P1;PMS_P2;Temp;Humidity;BMP_temperature;BMP_pressure;BME280_temperature;BME280_humidity;BME280_pressure;Samples;Min_cycle;Max_cycle;Signal;HPM_P1;HPM_P2
2022/06/23 00:00:08;;;;;;;;;;;;;;;28.66;31.55;101038.06;4978793;28;20023;-71
2022/06/23 00:02:35;;;;;;;61.65;58.60;;;;;;;28.62;31.72;101037.16;4978837;28;19906;-71
2022/06/23 00:05:10;;;;;;;59.47;55.83;;;;;;;28.58;31.24;101041.81;4978415;28;20046;-71
2022/06/23 00:07:38;;;;;;;60.22;57.33;;;;;;;28.55;31.37;101042.53;4978181;28;20035;-71
2022/06/23 00:10:12;;;;;;;62.10;59.10;;;;;;;28.50;31.56;101046.41;4978128;28;20027;-71
2022/06/23 00:12:40;;;;;;;60.10;57.30;;;;;;;28.47;31.34;101041.53;4978233;28;20494;-71
2022/06/23 00:15:05;;;;;;;61.10;58.07;;;;;;;28.42;31.62;101050.91;4960971;28;20070;-71
2022/06/23 00:17:32;;;;;;;60.17;57.00;;;;;;;28.37;31.65;101048.38;4977723;28;20304;-71
2022/06/23 00:20:06;;;;;;;57.22;54.53;;;;;;;28.34;31.38;101051.88;4977718;28;20519;-72
2022/06/23 00:22:33;;;;;;;58.55;55.63;;;;;;;28.31;31.69;101044.28;4977957;28;20031;-73
2022/06/23 00:25:03;;;;;;;62.00;58.90;;;;;;;28.29;31.30;101049.38;4977811;28;20065;-72
2022/06/23 00:27:35;;;;;;;59.08;56.10;;;;;;;28.24;31.52;101042.09;4977824;28;20026;-72
2022/06/23 00:30:17;;;;;;;57.58;54.78;;;;;;;28.20;31.60;101043.19;4978035;28;20098;-72
2022/06/23 00:32:43;;;;;;;60.22;57.33;;;;;;;28.17;31.58;101049.44;4976793;28;20026;-72
2022/06/23 00:35:16;;;;;;;59.70;56.60;;;;;;;28.14;31.43;101050.94;4977646;28;20375;-71
2022/06/23 00:37:47;;;;;;;55.75;53.15;;;;;;;28.11;31.98;101040.56;4977932;28;20030;-71
2022/06/23 00:40:14;;;;;;;60.22;57.33;;;;;;;28.08;31.46;101046.81;4977553;28;20356;-71
2022/06/23 00:42:51;;;;;;;57.45;54.75;;;;;;;28.04;31.91;101045.91;4977627;28;20110;-71
2022/06/23 00:45:35;;;;;;;58.87;55.93;;;;;;;28.00;31.81;101039.47;4977790;28;20073;-71
2022/06/23 00:48:16;;;;;;;58.30;55.30;;;;;;;27.98;31.97;101031.47;4977690;28;20029;-71
2022/06/23 00:50:51;;;;;;;58.92;55.92;;;;;;;27.94;32.20;101036.13;4977234;28;20019;-71
2022/06/23 00:53:28;;;;;;;61.45;58.20;;;;;;;27.91;32.08;101034.06;4977371;28;20463;-72
2022/06/23 00:56:15;;;;;;;60.10;57.00;;;;;;;27.89;31.99;101028.03;4978133;28;20035;-71
2022/06/23 00:58:56;;;;;;;56.13;53.22;;;;;;;27.85;31.74;101031.91;4976110;28;20411;-71
2022/06/23 01:01:46;;;;;;;60.05;56.95;;;;;;;27.80;31.84;101025.41;4976974;28;20038;-72
2022/06/23 01:04:30;;;;;;;59.00;55.92;;;;;;;27.76;32.15;101024.47;4977164;28;20085;-71
2022/06/23 01:07:07;;;;;;;55.22;52.42;;;;;;;27.72;32.49;101017.19;4960119;28;20058;-71
2022/06/23 01:10:05;;;;;;;56.17;53.17;;;;;;;27.69;32.49;101015.16;4977463;28;20118;-71
2022/06/23 01:12:36;;;;;;;54.83;52.03;;;;;;;27.65;32.42;101025.34;4977365;28;20023;-71
2022/06/23 01:15:10;;;;;;;58.15;55.10;;;;;;;27.62;32.37;101026.88;4977087;28;20022;-72
2022/06/23 01:17:43;;;;;;;56.22;53.33;;;;;;;27.59;32.25;101024.78;4976768;28;20027;-71
2022/06/23 01:20:36;;;;;;;56.47;53.58;;;;;;;27.56;32.69;101028.25;4976648;28;20435;-71
2022/06/23 01:23:14;;;;;;;55.97;53.05;;;;;;;27.51;32.17;101012.66;4976877;28;20455;-72
2022/06/23 01:25:40;;;;;;;;;;;;;;;27.47;32.38;101022.84;4977554;28;20037;-71
2022/06/23 01:28:17;;;;;;;53.93;51.17;;;;;;;27.43;32.36;101019.16;4976803;28;19914;-70
2022/06/23 01:31:00;;;;;;;56.78;53.97;;;;;;;27.40;32.81;101030.97;4976506;28;20365;-71
2022/06/23 01:33:33;;;;;;;57.83;54.90;;;;;;;27.36;32.54;101027.25;4976625;28;20470;-72
2022/06/23 01:36:17;;;;;;;55.65;52.90;;;;;;;27.34;32.85;101021.25;4977199;28;20034;-71
2022/06/23 01:39:00;;;;;;;57.95;54.53;;;;;;;27.31;33.09;101024.72;4976299;28;20026;-72
2022/06/23 01:41:33;;;;;;;57.78;54.88;;;;;;;27.28;32.92;101025.44;4976584;28;20027;-73
2022/06/23 01:44:38;;;;;;;56.88;53.60;;;;;;;27.24;32.72;101027.28;4976815;28;20462;-72
2022/06/23 01:47:31;;;;;;;55.95;53.13;;;;;;;27.18;33.08;101030.28;4975453;28;20407;-71
2022/06/23 01:50:38;;;;;;;57.15;53.92;;;;;;;27.16;33.31;101026.22;4976203;28;20034;-71
2022/06/23 01:53:29;;;;;;;54.10;51.30;;;;;;;27.11;32.92;101023.69;4975753;28;20455;-71
2022/06/23 01:55:59;;;;;;;54.65;51.60;;;;;;;27.06;33.21;101013.63;4977108;28;20027;-70
2022/06/23 01:58:32;;;;;;;58.00;55.00;;;;;;;27.05;33.01;101016.78;4976160;28;20026;-71
2022/06/23 02:01:02;;;;;;;55.45;52.70;;;;;;;27.02;33.30;101018.28;4976299;28;20082;-71
2022/06/23 02:03:33;;;;;;;57.15;54.05;;;;;;;27.00;33.58;101020.59;4975697;28;20459;-71
2022/06/23 02:06:11;;;;;;;55.92;52.85;;;;;;;26.97;33.39;101015.75;4976461;28;20463;-71
2022/06/23 02:08:42;;;;;;;54.80;51.97;;;;;;;26.93;33.53;101010.06;4976077;28;20097;-71
2022/06/23 02:11:24;;;;;;;55.00;52.25;;;;;;;26.91;33.44;101003.25;4975878;28;20019;-70
2022/06/23 02:14:33;;;;;;;53.15;50.05;;;;;;;26.87;33.48;101008.69;4976224;28;20125;-71
2022/06/23 02:17:10;;;;;;;53.22;49.90;;;;;;;26.84;33.52;101000.25;4956256;28;20130;-71
2022/06/23 02:19:44;;;;;;;55.90;52.42;;;;;;;26.81;33.39;100992.63;4976108;28;20502;-71
2022/06/23 02:22:25;;;;;;;53.22;50.33;;;;;;;26.77;33.70;101004.41;4975754;28;20066;-71
2022/06/23 02:25:05;;;;;;;52.40;49.40;;;;;;;26.74;33.63;100996.00;4975659;28;20482;-70
2022/06/23 02:27:38;;;;;;;55.67;52.65;;;;;;;26.70;34.01;101001.41;4975625;28;20029;-71
2022/06/23 02:30:10;;;;;;;54.78;51.97;;;;;;;26.68;34.02;101000.16;4975673;28;20510;-71
2022/06/23 02:32:57;;;;;;;53.63;50.80;;;;;;;26.65;33.69;100998.06;4958140;28;20101;-70
2022/06/23 02:35:46;;;;;;;54.53;51.63;;;;;;;26.61;33.73;100997.97;4976070;28;20101;-72
2022/06/23 02:38:48;;;;;;;52.35;49.75;;;;;;;26.57;34.04;101002.56;4975551;28;20034;-71
2022/06/23 02:41:32;;;;;;;55.72;52.72;;;;;;;26.54;34.37;101003.28;4944540;28;20050;-71
2022/06/23 02:44:18;;;;;;;51.85;49.25;;;;;;;26.52;34.40;101000.00;4975774;28;20034;-71
2022/06/23 02:46:46;;;;;;;52.38;49.53;;;;;;;26.48;34.06;100994.31;4975626;28;20419;-71
2022/06/23 02:49:32;;;;;;;53.13;50.42;;;;;;;26.46;34.36;100990.28;4975329;28;20436;-71
2022/06/23 02:52:25;;;;;;;53.20;50.25;;;;;;;26.42;34.44;100990.16;4975995;28;20109;-71
2022/06/23 02:54:59;;;;;;;52.00;48.65;;;;;;;26.38;34.02;100988.44;4975501;28;20030;-71
2022/06/23 02:57:27;;;;;;;53.17;50.38;;;;;;;26.35;34.46;100992.69;4975448;28;20402;-71
2022/06/23 02:59:58;;;;;;;53.15;50.35;;;;;;;26.30;34.50;100988.19;4975161;28;20470;-70
2022/06/23 03:02:50;;;;;;;53.60;50.90;;;;;;;26.29;34.62;100978.28;4975568;28;20023;-71
2022/06/23 03:05:46;;;;;;;51.55;48.58;;;;;;;26.25;34.35;100976.53;4975204;28;20047;-70
2022/06/23 03:08:30;;;;;;;52.95;49.95;;;;;;;26.22;34.53;100978.03;4975530;28;20026;-70
2022/06/23 03:11:16;;;;;;;52.10;49.30;;;;;;;26.19;34.90;100977.91;4974710;28;20146;-71
2022/06/23 03:13:51;;;;;;;53.03;50.05;;;;;;;26.15;35.00;100972.22;4975242;28;20027;-71
2022/06/23 03:16:30;;;;;;;52.53;49.70;;;;;;;26.12;34.73;100972.94;4974821;28;20031;-70
2022/06/23 03:19:14;;;;;;;51.33;48.20;;;;;;;26.10;34.99;100975.22;4974893;28;20034;-70
2022/06/23 03:21:44;;;;;;;52.03;49.10;;;;;;;26.06;34.62;100972.34;4974391;28;20030;-71
2022/06/23 03:24:40;;;;;;;52.03;49.22;;;;;;;26.03;35.03;100961.13;4974825;28;20054;-70
2022/06/23 03:27:29;;;;;;;54.55;51.72;;;;;;;26.01;35.03;100966.22;4974814;28;20027;-71
2022/06/23 03:30:20;;;;;;;51.08;48.22;;;;;;;25.98;34.90;100973.25;4975114;28;20026;-70
2022/06/23 03:32:52;;;;;;;51.15;48.22;;;;;;;25.94;35.36;100986.16;4974832;28;20030;-71
2022/06/23 03:35:23;;;;;;;51.70;48.83;;;;;;;25.91;35.02;100984.06;4974731;28;20061;-67
2022/06/23 03:38:15;;;;;;;50.78;48.17;;;;;;;25.89;35.27;100992.69;4975101;28;20363;-71
2022/06/23 03:43:31;;;;;;;51.78;48.67;;;;;;;25.82;34.96;100984.09;4975125;28;20037;-72
2022/06/23 03:46:21;;;;;;;50.35;47.28;;;;;;;25.81;35.26;100981.69;4974665;28;20374;-72
2022/06/23 03:48:52;;;;;;;50.80;48.00;;;;;;;25.77;34.94;100973.25;4963981;28;20085;-72
2022/06/23 03:51:31;;;;;;;51.30;48.67;;;;;;;25.74;34.92;100968.41;4973275;28;20367;-71
2022/06/23 03:54:13;;;;;;;52.00;48.90;;;;;;;25.72;35.60;100967.94;4957074;28;20030;-70
2022/06/23 03:56:50;;;;;;;49.10;46.58;;;;;;;25.69;35.22;100971.38;4974193;28;20465;-70
2022/06/23 03:59:19;;;;;;;47.15;44.55;;;;;;;25.66;34.98;100972.06;4975079;28;20027;-70
2022/06/23 04:01:53;;;;;;;47.90;45.28;;;;;;;25.61;35.06;100964.78;4974599;28;20034;-70
2022/06/23 04:04:22;;;;;;;48.83;46.20;;;;;;;25.60;35.21;100970.63;4974564;28;20046;-70
2022/06/23 04:06:50;;;;;;;47.22;44.53;;;;;;;25.57;35.09;100966.59;4974387;28;20026;-70
2022/06/23 04:09:15;;;;;;;49.57;46.97;;;;;;;25.54;35.22;100969.25;4974401;28;20034;-70
2022/06/23 04:11:59;;;;;;;49.85;46.95;;;;;;;25.53;35.75;100970.38;4974325;28;20258;-70
2022/06/23 04:14:30;;;;;;;49.00;46.45;;;;;;;25.48;35.33;100974.97;4974220;28;20027;-71
2022/06/23 04:17:09;;;;;;;48.22;45.58;;;;;;;25.44;35.87;100968.50;4974354;28;20452;-71
2022/06/23 04:19:36;;;;;;;49.65;46.92;;;;;;;25.39;35.59;100965.94;4974505;28;20023;-71
2022/06/23 04:22:08;;;;;;;51.22;48.15;;;;;;;25.38;36.08;100964.31;4974311;28;20122;-70
2022/06/23 04:24:36;;;;;;;49.42;46.80;;;;;;;25.34;35.85;100963.38;4974132;28;20027;-70
2022/06/23 04:27:09;;;;;;;46.67;44.05;;;;;;;25.30;35.65;100962.44;4974387;28;20078;-70
2022/06/23 04:29:38;;;;;;;47.83;45.08;;;;;;;25.25;35.91;100965.41;4974451;28;20035;-70
2022/06/23 04:32:10;;;;;;;47.45;45.05;;;;;;;25.22;35.78;100977.13;4973912;28;20097;-69
2022/06/23 04:34:47;;;;;;;50.97;48.15;;;;;;;25.19;35.88;100966.75;4976740;28;20033;-70
2022/06/23 04:37:40;;;;;;;47.63;45.10;;;;;;;25.17;35.95;100980.09;4977929;28;20391;-70
2022/06/23 04:40:28;;;;;;;48.20;45.60;;;;;;;25.15;35.77;100980.41;4977482;28;20341;-71
2022/06/23 04:42:58;;;;;;;47.85;45.30;;;;;;;25.12;35.76;100975.53;4977871;28;20093;-70
2022/06/23 04:45:37;;;;;;;46.85;43.90;;;;;;;25.11;35.99;100975.88;4960971;28;20415;-70
2022/06/23 04:48:05;;;;;;;;;;;;;;;25.06;35.70;100979.66;4978227;28;20050;-70
2022/06/23 04:50:39;;;;;;;46.65;44.15;;;;;;;25.03;35.52;100977.56;4978150;28;19925;-70
2022/06/23 04:53:05;;;;;;;48.80;45.90;;;;;;;25.01;36.19;100972.34;4978330;28;20101;-70
2022/06/23 04:55:33;;;;;;;50.75;47.92;;;;;;;25.00;35.68;100973.50;4976088;28;20459;-70
2022/06/23 04:58:03;;;;;;;51.30;48.17;;;;;;;24.99;35.83;100969.13;4977378;28;20478;-69
2022/06/23 05:00:42;;;;;;;47.42;44.97;;;;;;;24.98;35.76;100972.22;4977523;28;20062;-70
2022/06/23 05:03:32;;;;;;;45.40;43.10;;;;;;;24.96;35.87;100974.50;4976000;28;20018;-70
2022/06/23 05:06:25;;;;;;;44.67;42.15;;;;;;;24.92;35.76;100977.16;4977562;28;20055;-70
2022/06/23 05:08:52;;;;;;;47.50;44.78;;;;;;;24.89;35.81;100975.03;4977155;28;20026;-70
2022/06/23 05:11:27;;;;;;;48.08;45.22;;;;;;;24.88;36.53;100976.19;4977287;28;20030;-69
2022/06/23 05:14:01;;;;;;;47.20;44.30;;;;;;;24.86;36.10;100974.91;4977110;28;20030;-69
2022/06/23 05:16:33;;;;;;;47.58;44.78;;;;;;;24.82;36.22;100961.75;4977227;28;20081;-69
2022/06/23 05:19:08;;;;;;;49.28;46.30;;;;;;;24.80;36.63;100954.94;4977230;28;20378;-70
2022/06/23 05:21:44;;;;;;;51.38;47.65;;;;;;;24.77;36.66;100945.38;4976817;28;20026;-70
2022/06/23 05:24:28;;;;;;;46.38;43.53;;;;;;;24.75;36.63;100955.16;4976884;28;20027;-70
2022/06/23 05:27:04;;;;;;;46.60;43.60;;;;;;;24.73;36.14;100957.41;4976971;28;20459;-70
2022/06/23 05:30:00;;;;;;;47.38;44.38;;;;;;;24.74;36.08;100961.78;4976529;28;20371;-70
2022/06/23 05:32:28;;;;;;;48.13;45.42;;;;;;;24.73;36.15;100968.47;4962735;28;20031;-71
2022/06/23 05:35:01;;;;;;;;;;;;;;;24.73;36.16;100974.81;4977177;28;20054;-71
2022/06/23 05:37:44;;;;;;;45.10;42.70;;;;;;;24.71;36.48;100973.50;4976586;28;20373;-70
2022/06/23 05:40:33;;;;;;;46.95;44.13;;;;;;;24.69;36.48;100981.31;4976507;28;20073;-70
2022/06/23 05:43:00;;;;;;;47.42;44.60;;;;;;;24.68;36.86;100975.00;4976574;28;20501;-71
2022/06/23 05:45:31;;;;;;;46.58;43.88;;;;;;;24.67;37.01;100965.09;4976704;28;20093;-70
2022/06/23 05:47:58;;;;;;;47.80;44.90;;;;;;;24.66;36.55;100977.28;4977073;28;20070;-71
2022/06/23 05:50:29;;;;;;;45.80;43.40;;;;;;;24.65;36.83;100975.66;4976382;28;20113;-69
2022/06/23 05:53:01;;;;;;;46.90;44.17;;;;;;;24.65;36.60;100983.16;4976301;28;20035;-69
2022/06/23 05:55:29;;;;;;;45.85;43.25;;;;;;;24.68;36.95;100996.28;4976009;28;20030;-69
2022/06/23 05:58:32;;;;;;;47.25;44.03;;;;;;;24.69;36.66;100973.84;4976258;28;20035;-70
2022/06/23 06:01:24;;;;;;;48.90;45.90;;;;;;;24.70;37.14;100977.44;4976022;28;20037;-69
2022/06/23 06:04:11;;;;;;;45.30;42.80;;;;;;;24.70;37.12;100971.91;4973400;28;20105;-70
2022/06/23 06:06:37;;;;;;;49.42;46.05;;;;;;;24.68;37.06;100966.69;4975955;28;20033;-70
2022/06/23 06:11:55;;;;;;;44.47;41.70;;;;;;;24.71;36.99;100979.03;4976191;28;20447;-70
2022/06/23 06:14:26;;;;;;;47.15;44.35;;;;;;;24.70;36.72;100972.72;4976022;28;20042;-70
2022/06/23 06:16:53;;;;;;;46.03;43.35;;;;;;;24.73;37.19;100971.22;4975629;28;20446;-69
2022/06/23 06:19:22;;;;;;;47.58;44.40;;;;;;;24.76;37.04;100974.13;4975851;28;20039;-70
2022/06/23 06:21:53;;;;;;;46.78;44.17;;;;;;;24.79;36.67;100980.94;4976218;28;20113;-71
2022/06/23 06:24:28;;;;;;;48.88;45.97;;;;;;;24.82;36.88;100988.56;4958849;28;20426;-70
2022/06/23 06:26:55;;;;;;;46.58;43.97;;;;;;;24.82;37.35;100983.03;4975494;28;20109;-71
2022/06/23 06:29:31;;;;;;;47.20;44.70;;;;;;;24.83;36.97;100979.94;4975499;28;20464;-71
2022/06/23 06:32:18;;;;;;;46.17;43.53;;;;;;;24.88;37.08;100976.19;4975412;28;20046;-70
2022/06/23 06:34:51;;;;;;;48.53;45.85;;;;;;;24.91;37.04;100971.94;4975553;28;20031;-70
2022/06/23 06:37:18;;;;;;;50.85;47.85;;;;;;;24.94;37.40;100969.31;4975970;28;20035;-71
2022/06/23 06:39:49;;;;;;;48.03;45.22;;;;;;;24.97;37.40;100973.34;4975818;28;20081;-70
2022/06/23 06:42:39;;;;;;;48.00;45.28;;;;;;;24.98;36.89;100978.56;4975901;28;20061;-70
2022/06/23 06:45:11;;;;;;;48.53;45.63;;;;;;;25.00;37.17;100976.28;4975414;28;20030;-71
2022/06/23 06:47:39;;;;;;;48.92;46.03;;;;;;;25.02;37.30;100974.00;4974596;28;20035;-71
2022/06/23 06:50:29;;;;;;;48.90;45.90;;;;;;;25.07;37.35;100983.22;4975451;28;20027;-70
2022/06/23 06:52:56;;;;;;;47.08;44.25;;;;;;;25.09;37.10;100980.94;4975728;28;20027;-67
2022/06/23 06:55:30;;;;;;;48.42;45.35;;;;;;;25.14;36.96;100986.25;4975143;28;20117;-69
2022/06/23 06:58:05;;;;;;;47.70;45.08;;;;;;;25.16;37.36;100981.22;4957461;28;20058;-68
2022/06/23 07:00:39;;;;;;;45.58;42.88;;;;;;;25.21;37.25;100983.81;4975042;28;20031;-68
2022/06/23 07:03:08;;;;;;;48.53;45.55;;;;;;;25.24;37.51;100983.13;4974839;28;20030;-69
2022/06/23 07:05:41;;;;;;;49.22;46.08;;;;;;;25.28;37.34;100981.31;4975286;28;20054;-69
2022/06/23 07:08:13;;;;;;;47.70;44.30;;;;;;;25.33;37.71;100977.56;4974971;28;20474;-69
2022/06/23 07:10:52;;;;;;;49.67;46.58;;;;;;;25.37;37.72;100975.72;4975160;28;20031;-69
2022/06/23 07:13:33;;;;;;;49.17;46.17;;;;;;;25.40;37.81;100980.56;4975176;28;20031;-70
2022/06/23 07:16:15;;;;;;;46.85;44.08;;;;;;;25.44;37.94;100979.56;4974605;28;20097;-69
2022/06/23 07:18:57;;;;;;;46.75;44.28;;;;;;;25.47;37.62;100978.88;4974833;28;20031;-69
2022/06/23 07:21:45;;;;;;;48.83;45.72;;;;;;;25.50;37.49;100980.16;4974355;28;20031;-69
2022/06/23 07:24:29;;;;;;;;;;;;;;;25.54;37.39;100974.78;4975752;28;20110;-71
2022/06/23 07:27:03;;;;;;;49.78;46.80;;;;;;;25.57;37.67;100980.41;4975064;28;20266;-70
2022/06/23 07:29:37;;;;;;;46.67;44.17;;;;;;;25.60;38.15;100973.41;4974807;28;20062;-70
2022/06/23 07:32:16;;;;;;;51.40;48.17;;;;;;;25.64;37.91;100977.13;4957409;28;20019;-69
2022/06/23 07:35:05;;;;;;;52.35;48.83;;;;;;;25.66;38.54;100975.63;4975394;28;20121;-70
2022/06/23 07:37:42;;;;;;;50.42;47.53;;;;;;;25.72;38.13;100978.19;4973384;28;20510;-69
2022/06/23 07:40:09;;;;;;;49.17;46.28;;;;;;;25.77;38.02;100976.00;4957319;28;20037;-70
2022/06/23 07:42:34;;;;;;;51.78;48.88;;;;;;;25.80;38.73;100969.78;4974617;28;20050;-70
2022/06/23 07:45:05;;;;;;;51.30;48.20;;;;;;;25.86;38.21;100971.25;4974758;28;20031;-69
2022/06/23 07:47:31;;;;;;;52.03;48.70;;;;;;;25.91;38.74;100967.47;4974780;28;20578;-70
2022/06/23 07:49:56;;;;;;;48.47;45.97;;;;;;;25.98;38.90;100972.41;4974486;28;20135;-70
2022/06/23 07:52:23;;;;;;;50.40;47.70;;;;;;;26.02;38.48;100965.88;4974466;28;20127;-68
2022/06/23 07:54:49;;;;;;;54.47;50.92;;;;;;;26.08;39.27;100970.03;4973380;28;20098;-69
2022/06/23 07:57:16;;;;;;;53.72;50.35;;;;;;;26.14;38.94;100969.81;4974363;28;20045;-68
2022/06/23 07:59:58;;;;;;;51.35;48.45;;;;;;;26.21;39.42;100975.63;4973571;28;20436;-69
2022/06/23 08:02:46;;;;;;;51.97;49.08;;;;;;;26.26;39.43;100969.84;4974312;28;20031;-69
2022/06/23 08:05:21;;;;;;;53.72;50.83;;;;;;;26.32;39.30;100974.81;4956981;28;20433;-69
2022/06/23 08:07:48;;;;;;;53.03;49.83;;;;;;;26.39;39.56;100970.69;4958433;28;20037;-68
2022/06/23 08:10:21;;;;;;;53.53;50.17;;;;;;;26.46;39.58;100971.72;4978245;28;20035;-68
2022/06/23 08:12:58;;;;;;;54.47;51.28;;;;;;;26.52;39.60;100967.59;4977934;28;20027;-69
2022/06/23 08:18:59;;;;;;;55.40;52.22;;;;;;;26.69;39.55;100955.47;4978545;28;20049;-69
2022/06/23 08:21:28;;;;;;;57.95;53.72;;;;;;;26.74;40.06;100952.47;4975138;28;20043;-73
2022/06/23 08:24:11;;;;;;;53.67;50.65;;;;;;;26.83;39.93;100959.84;4977836;28;20027;-74
2022/06/23 08:26:39;;;;;;;53.05;50.15;;;;;;;26.90;39.96;100955.34;4978321;28;20085;-69
2022/06/23 08:29:11;;;;;;;55.83;52.88;;;;;;;26.97;40.28;100957.53;4977682;28;20470;-70
2022/06/23 08:31:38;;;;;;;55.53;52.00;;;;;;;27.04;39.94;100954.97;4978127;28;20122;-70
2022/06/23 08:34:04;;;;;;;56.28;53.08;;;;;;;27.13;39.89;100958.41;4960095;28;20031;-70
2022/06/23 08:36:53;;;;;;;57.25;53.75;;;;;;;27.24;40.48;100955.16;4977701;28;20035;-70
2022/06/23 08:39:33;;;;;;;56.33;53.03;;;;;;;27.32;40.23;100955.06;4978408;28;20034;-70
2022/06/23 08:42:04;;;;;;;57.22;54.13;;;;;;;27.39;40.45;100958.03;4977335;28;20081;-71
2022/06/23 08:45:18;;;;;;;58.42;54.85;;;;;;;27.50;40.16;100969.44;4977634;28;20030;-71
2022/06/23 08:47:54;;;;;;;58.22;55.05;;;;;;;27.60;40.23;100965.34;4924836;28;20388;-67
2022/06/23 08:50:27;;;;;;;55.38;52.22;;;;;;;27.68;40.10;100958.84;4977775;28;20449;-73
2022/06/23 08:53:01;;;;;;;60.25;56.78;;;;;;;27.78;39.89;100957.53;4977884;28;20034;-71
2022/06/23 08:55:38;;;;;;;58.25;54.45;;;;;;;27.86;40.11;100951.03;4977186;28;20054;-70
2022/06/23 08:58:24;;;;;;;60.33;57.17;;;;;;;27.96;39.88;100955.25;4977073;28;20099;-71
2022/06/23 09:00:56;;;;;;;57.05;53.85;;;;;;;28.07;40.22;100949.97;4977553;28;20074;-71
2022/06/23 09:03:40;;;;;;;58.78;55.78;;;;;;;28.16;40.21;100953.41;4977358;28;20038;-70
2022/06/23 09:06:41;;;;;;;57.95;54.83;;;;;;;28.26;40.15;100947.31;4977138;28;20121;-71
2022/06/23 09:09:28;;;;;;;64.72;61.08;;;;;;;28.37;40.74;100944.78;4958014;28;20050;-67
2022/06/23 09:11:59;;;;;;;59.55;56.00;;;;;;;28.46;40.92;100951.00;4977559;28;20602;-66
2022/06/23 09:14:57;;;;;;;64.68;59.17;;;;;;;28.53;41.01;100945.63;4976990;28;20134;-68
2022/06/23 09:17:26;;;;;;;;;;;;;;;28.59;40.68;100940.59;4944651;28;20043;-69
2022/06/23 09:20:09;;;;;;;67.00;62.88;;;;;;;28.66;40.85;100943.56;4975773;28;19940;-70
2022/06/23 09:24:00;;;;;;;70.70;66.95;;;;;;;28.80;41.10;100945.84;5058925;28;20399;-74
2022/06/23 09:26:47;;;;;;;66.82;63.13;;;;;;;28.90;41.27;100945.28;5060060;28;20071;-73
2022/06/23 09:29:49;;;;;;;67.10;63.55;;;;;;;28.99;41.17;100948.66;5069351;28;20082;-71
2022/06/23 09:32:43;;;;;;;70.45;66.28;;;;;;;29.11;41.22;100942.22;5062937;28;20542;-77
2022/06/23 09:35:42;;;;;;;67.80;63.95;;;;;;;29.22;41.37;100936.88;5066850;28;20032;-70
2022/06/23 09:38:42;;;;;;;72.07;67.78;;;;;;;29.33;41.49;100933.16;5067656;28;20494;-77
2022/06/23 09:41:13;;;;;;;68.10;64.65;;;;;;;29.45;41.42;100929.41;5054920;28;20447;-77
2022/06/23 09:43:41;;;;;;;68.05;64.63;;;;;;;29.55;41.03;100928.00;5052112;28;20515;-77
2022/06/23 09:46:21;;;;;;;73.70;69.13;;;;;;;29.66;40.98;100928.22;5048160;28;20478;-77
2022/06/23 09:49:35;;;;;;;70.07;65.85;;;;;;;29.77;41.10;100923.69;5047849;28;20115;-70
2022/06/23 09:52:22;;;;;;;74.70;70.30;;;;;;;29.92;40.87;100927.53;5043366;28;20075;-78
2022/06/23 09:55:12;;;;;;;71.22;67.13;;;;;;;30.02;40.29;100918.56;5052379;28;20030;-75
2022/06/23 09:58:01;;;;;;;71.43;67.57;;;;;;;30.15;39.86;100922.78;5064857;28;20055;-81
2022/06/23 10:00:40;;;;;;;73.10;69.35;;;;;;;30.26;39.66;100925.75;5067939;28;20029;-80
2022/06/23 10:03:48;;;;;;;72.90;68.75;;;;;;;30.38;38.92;100914.41;5067876;28;20029;-79
2022/06/23 10:06:34;;;;;;;74.13;70.43;;;;;;;30.50;39.52;100916.19;5060986;28;20052;-72
2022/06/23 10:09:08;;;;;;;77.68;72.68;;;;;;;30.58;39.26;100917.91;5063164;28;20713;-70
2022/06/23 10:11:36;;;;;;;77.20;72.60;;;;;;;30.67;38.92;100917.66;5061424;28;20103;-74
2022/06/23 10:14:12;;;;;;;81.60;73.97;;;;;;;30.76;39.26;100920.16;5056057;28;20037;-68
2022/06/23 10:17:21;;;;;;;75.72;71.63;;;;;;;30.83;38.89;100923.88;5048323;28;20037;-68
2022/06/23 10:20:17;;;;;;;77.93;73.03;;;;;;;30.92;38.59;100918.03;5050099;28;20146;-68
2022/06/23 10:23:00;;;;;;;72.07;68.28;;;;;;;30.98;38.75;100922.09;5058443;28;20102;-67
2022/06/23 10:25:58;;;;;;;74.53;69.93;;;;;;;31.06;38.70;100911.84;5049352;28;20428;-67
2022/06/23 10:28:37;;;;;;;74.63;70.65;;;;;;;31.13;38.40;100911.13;5060689;28;20052;-69
2022/06/23 10:31:08;;;;;;;78.32;74.05;;;;;;;31.19;38.72;100915.19;5062584;28;20068;-69
2022/06/23 10:33:36;;;;;;;80.13;74.82;;;;;;;31.26;38.52;100906.91;5057096;28;20041;-70
2022/06/23 10:36:07;;;;;;;79.15;74.70;;;;;;;31.34;38.31;100899.41;5034283;28;20032;-72
2022/06/23 10:38:49;;;;;;;80.72;76.28;;;;;;;31.42;38.42;100896.34;5035191;28;20034;-76
2022/06/23 10:41:47;;;;;;;79.55;74.90;;;;;;;31.49;38.57;100901.22;5035648;28;20049;-72
2022/06/23 10:44:28;;;;;;;79.50;75.05;;;;;;;31.54;38.13;100903.66;5058872;28;20040;-73
2022/06/23 10:47:26;;;;;;;79.53;73.57;;;;;;;31.60;38.03;100906.91;5034212;28;20079;-73
2022/06/23 10:50:31;;;;;;;78.93;74.53;;;;;;;31.64;38.19;100905.75;5029215;28;20492;-73
2022/06/23 10:53:08;;;;;;;82.90;77.85;;;;;;;31.68;38.48;100900.22;5033552;28;20044;-73
2022/06/23 10:56:03;;;;;;;81.93;75.72;;;;;;;31.74;38.45;100909.06;5042883;28;20038;-71
2022/06/23 10:58:38;;;;;;;79.40;74.47;;;;;;;31.75;38.95;100900.28;5034228;28;20484;-73
2022/06/23 11:01:12;;;;;;;82.05;77.63;;;;;;;31.80;38.60;100897.16;5045792;28;20052;-73
2022/06/23 11:04:02;;;;;;;79.65;75.25;;;;;;;31.86;38.84;100894.81;5049983;28;20453;-74
2022/06/23 11:06:48;;;;;;;82.63;78.13;;;;;;;31.92;38.48;100902.44;5038536;28;20059;-71
2022/06/23 11:09:23;;;;;;;83.00;78.57;;;;;;;31.99;37.89;100881.38;5052779;28;20389;-75
2022/06/23 11:12:28;;;;;;;81.07;76.75;;;;;;;32.09;37.98;100897.44;5052644;28;20470;-71
2022/06/23 11:15:05;;;;;;;83.03;78.80;;;;;;;32.16;37.88;100886.31;5054140;28;20095;-69
2022/06/23 11:18:10;;;;;;;84.35;79.80;;;;;;;32.23;37.98;100874.38;5034371;28;20029;-74
2022/06/23 11:20:49;;;;;;;84.03;79.40;;;;;;;32.30;37.90;100868.84;5044200;28;20105;-74
2022/06/23 11:23:39;;;;;;;81.90;77.55;;;;;;;32.38;37.52;100869.69;5045442;28;20524;-74
2022/06/23 11:26:13;;;;;;;82.47;78.35;;;;;;;32.44;37.45;100879.34;5058533;28;20059;-75
2022/06/23 11:29:01;;;;;;;81.47;77.35;;;;;;;32.52;37.46;100881.00;5061892;28;20082;-74
2022/06/23 11:32:00;;;;;;;82.50;78.40;;;;;;;32.58;37.49;100873.06;5044668;28;20473;-75
2022/06/23 11:35:13;;;;;;;85.70;81.25;;;;;;;32.67;37.31;100881.91;5038541;28;20033;-74
2022/06/23 11:37:38;;;;;;;83.30;78.97;;;;;;;32.71;36.95;100875.16;5035155;28;20473;-74
2022/06/23 11:40:30;;;;;;;86.53;82.20;;;;;;;32.79;37.08;100884.38;5033217;28;20116;-74
2022/06/23 11:43:01;;;;;;;84.53;80.53;;;;;;;32.86;36.87;100866.81;5048794;28;20055;-74
2022/06/23 11:45:39;;;;;;;84.03;80.07;;;;;;;32.92;36.64;100870.84;5049023;28;20033;-73
2022/06/23 11:48:10;;;;;;;86.80;82.50;;;;;;;32.98;36.72;100874.84;5033065;28;20405;-73
2022/06/23 11:50:57;;;;;;;88.00;83.53;;;;;;;33.04;36.63;100878.09;5050116;28;20071;-73
2022/06/23 11:53:41;;;;;;;86.03;81.90;;;;;;;33.11;36.53;100869.75;5052907;28;20115;-73
2022/06/23 11:56:28;;;;;;;87.30;83.22;;;;;;;33.16;36.43;100870.19;5042486;28;20167;-73
2022/06/23 11:59:14;;;;;;;91.63;87.43;;;;;;;33.22;36.45;100865.00;5049424;28;20040;-71
2022/06/23 12:01:40;;;;;;;89.63;85.38;;;;;;;33.27;36.12;100850.63;5051328;28;20060;-73
2022/06/23 12:04:30;;;;;;;87.95;83.75;;;;;;;33.35;36.17;100859.81;5050525;28;20453;-73
2022/06/23 12:07:15;;;;;;;87.22;83.05;;;;;;;33.39;36.30;100855.84;5049432;28;20124;-70
2022/06/23 12:09:56;;;;;;;91.72;87.10;;;;;;;33.48;35.67;100854.66;5044973;28;20106;-71
2022/06/23 12:12:23;;;;;;;88.65;84.13;;;;;;;33.52;35.79;100852.69;5050836;28;20090;-73
2022/06/23 12:14:51;;;;;;;93.32;88.93;;;;;;;33.59;35.65;100863.91;5049033;28;20448;-72